Time;durP1;ratioP1;P1;durP2;ratioP2;P2;SDS_P1;SDS_P2;PMS_P1;PMS_P2;Temp;Humidity;BMP_temperature;BMP_pressure;BME280_temperature;BME280_humidity;BME280_pressure;Samples;Min_cycle;Max_cycle;Signal;HPM_P1;HPM_P2
2023/10/17 00:00:12;;;;;;;0.57;0.57;;;;;;;5.96;69.97;97625.13;4987666;28;20209;-55
2023/10/17 00:02:40;;;;;;;0.55;0.55;;;;;;;6.29;69.86;97656.47;4987373;28;20050;-54
2023/10/17 00:05:10;;;;;;;0.60;0.60;;;;;;;6.28;69.78;97657.59;4987138;28;20059;-55
2023/10/17 00:07:43;;;;;;;0.60;0.60;;;;;;;6.30;69.94;97652.56;4987290;28;20516;-55
2023/10/17 00:10:14;;;;;;;0.50;0.50;;;;;;;6.42;69.80;97649.94;4968922;28;20513;-55
2023/10/17 00:12:44;;;;;;;0.50;0.50;;;;;;;6.41;70.92;97651.09;4986774;28;20593;-57
2023/10/17 00:15:27;;;;;;;0.50;0.50;;;;;;;6.45;69.90;97630.03;4986836;28;20060;-57
2023/10/17 00:18:15;;;;;;;;;;;;;;;6.45;71.43;97649.28;4987528;28;20141;-55
2023/10/17 00:20:43;;;;;;;0.50;0.50;;;;;;;6.28;72.06;97649.34;4985290;28;19933;-54
2023/10/17 00:23:20;;;;;;;0.50;0.50;;;;;;;6.03;72.48;97593.28;4969331;28;20046;-55
2023/10/17 00:25:49;;;;;;;0.60;0.60;;;;;;;6.43;72.61;97640.56;4985412;28;20058;-54
2023/10/17 00:28:20;;;;;;;0.50;0.50;;;;;;;6.46;72.32;97628.09;4986839;28;20066;-55
2023/10/17 00:30:51;;;;;;;0.60;0.60;;;;;;;6.40;73.21;97641.22;4986728;28;20496;-55
2023/10/17 00:33:23;;;;;;;0.50;0.50;;;;;;;6.43;72.75;97623.25;4954164;28;20062;-56
2023/10/17 00:35:50;;;;;;;0.50;0.50;;;;;;;6.34;73.74;97631.50;4967162;28;20077;-57
2023/10/17 00:38:17;;;;;;;0.57;0.57;;;;;;;6.45;73.53;97621.75;4966929;28;20431;-56
2023/10/17 00:43:14;;;;;;;0.60;0.60;;;;;;;6.36;73.60;97609.19;4967429;28;20062;-55
2023/10/17 00:45:43;;;;;;;0.60;0.60;;;;;;;6.51;73.01;97622.41;4967026;28;20078;-57
2023/10/17 00:48:20;;;;;;;0.55;0.55;;;;;;;5.75;73.79;97517.00;4958084;28;20414;-55
2023/10/17 00:50:50;;;;;;;0.60;0.60;;;;;;;6.34;74.58;97625.22;4966559;28;20061;-55
2023/10/17 00:53:18;;;;;;;0.50;0.50;;;;;;;6.27;75.10;97625.72;4966882;28;20319;-55
2023/10/17 00:55:51;;;;;;;0.50;0.50;;;;;;;6.11;75.25;97605.38;4949368;28;20134;-55
2023/10/17 00:58:22;;;;;;;0.60;0.60;;;;;;;6.28;75.26;97621.00;4966581;28;20055;-56
2023/10/17 01:00:54;;;;;;;0.60;0.60;;;;;;;5.93;75.40;97565.31;4964657;28;20077;-55
2023/10/17 01:03:21;;;;;;;0.50;0.50;;;;;;;6.12;75.81;97624.31;4966481;28;20050;-56
2023/10/17 01:05:57;;;;;;;0.57;0.57;;;;;;;6.09;76.29;97624.16;4966413;28;20086;-56
2023/10/17 01:08:36;;;;;;;0.50;0.50;;;;;;;5.94;76.77;97599.94;4966532;28;20057;-55
2023/10/17 01:11:08;;;;;;;0.60;0.60;;;;;;;6.05;76.41;97628.69;4964732;28;20064;-57
2023/10/17 01:13:39;;;;;;;0.50;0.50;;;;;;;5.88;77.26;97620.50;4964911;28;20061;-56
2023/10/17 01:16:09;;;;;;;0.50;0.50;;;;;;;5.94;77.52;97616.44;4966234;28;20046;-55
2023/10/17 01:18:36;;;;;;;0.50;0.50;;;;;;;5.88;77.39;97617.75;4965968;28;20055;-57
2023/10/17 01:21:04;;;;;;;0.50;0.50;;;;;;;5.18;76.97;97490.91;4966009;28;20105;-55
2023/10/17 01:23:31;;;;;;;0.50;0.50;;;;;;;5.90;76.97;97626.44;4965772;28;20066;-54
2023/10/17 01:26:01;;;;;;;0.50;0.50;;;;;;;5.67;78.22;97611.25;4965963;28;20054;-55
2023/10/17 01:28:29;;;;;;;0.50;0.50;;;;;;;5.35;78.29;97565.03;4948625;28;20137;-58
2023/10/17 01:30:57;;;;;;;0.50;0.50;;;;;;;5.68;78.98;97629.34;4965287;28;20051;-55
2023/10/17 01:33:27;;;;;;;0.50;0.50;;;;;;;5.64;79.34;97622.91;4980145;28;20058;-55
2023/10/17 01:35:57;;;;;;;0.50;0.50;;;;;;;5.57;79.47;97612.41;4985116;28;20077;-55
2023/10/17 01:38:26;;;;;;;0.50;0.50;;;;;;;5.63;79.65;97621.25;4985383;28;20057;-56
2023/10/17 01:40:55;;;;;;;0.50;0.50;;;;;;;5.46;79.50;97593.81;4985473;28;20129;-57
2023/10/17 01:43:22;;;;;;;0.55;0.55;;;;;;;4.82;75.65;97491.22;4985423;28;20085;-55
2023/10/17 01:45:50;;;;;;;0.50;0.50;;;;;;;5.52;75.55;97622.72;4984779;28;20520;-57
2023/10/17 01:48:21;;;;;;;0.50;0.50;;;;;;;5.49;74.64;97626.13;4984993;28;20054;-55
2023/10/17 01:50:48;;;;;;;0.50;0.50;;;;;;;5.52;74.30;97619.97;4967494;28;20188;-54
2023/10/17 01:53:14;;;;;;;0.50;0.50;;;;;;;4.84;74.24;97510.16;4984569;28;20129;-55
2023/10/17 01:55:45;;;;;;;0.40;0.40;;;;;;;4.71;74.08;97519.34;4984789;28;20057;-56
2023/10/17 01:58:15;;;;;;;0.50;0.50;;;;;;;5.50;74.26;97619.50;4985003;28;20488;-55
2023/10/17 02:00:42;;;;;;;0.50;0.50;;;;;;;5.59;74.34;97628.56;4967567;28;20057;-55
2023/10/17 02:03:12;;;;;;;0.52;0.52;;;;;;;5.52;73.77;97587.00;4983386;28;20062;-55
2023/10/17 02:05:39;;;;;;;0.50;0.50;;;;;;;5.13;74.76;97529.50;4984505;28;20057;-55
2023/10/17 02:08:06;;;;;;;0.50;0.50;;;;;;;5.76;74.94;97609.28;4984766;28;20058;-55
2023/10/17 02:10:33;;;;;;;0.50;0.50;;;;;;;5.88;73.94;97613.03;4984416;28;20069;-55
2023/10/17 02:13:03;;;;;;;0.50;0.50;;;;;;;5.32;74.27;97566.50;4984381;28;20440;-56
2023/10/17 02:15:30;;;;;;;0.50;0.50;;;;;;;5.69;73.80;97620.00;4984184;28;20453;-56
2023/10/17 02:17:57;;;;;;;0.50;0.50;;;;;;;5.67;73.95;97634.06;4967027;28;20436;-57
2023/10/17 02:22:58;;;;;;;0.50;0.50;;;;;;;5.68;76.77;97613.69;4984805;28;20501;-55
2023/10/17 02:25:32;;;;;;;0.50;0.50;;;;;;;5.66;77.50;97615.13;4984568;28;20051;-57
2023/10/17 02:27:59;;;;;;;0.50;0.50;;;;;;;5.19;77.28;97539.19;4984292;28;20054;-55
2023/10/17 02:30:26;;;;;;;0.50;0.50;;;;;;;5.26;76.86;97551.34;4984544;28;20046;-55
2023/10/17 02:32:56;;;;;;;0.50;0.50;;;;;;;5.61;76.99;97618.06;4984632;28;20058;-56
2023/10/17 02:35:39;;;;;;;0.50;0.50;;;;;;;5.60;76.56;97622.72;4984039;28;20151;-55
2023/10/17 02:38:08;;;;;;;0.50;0.50;;;;;;;5.59;75.71;97631.31;4982387;28;20133;-55
2023/10/17 02:40:40;;;;;;;0.50;0.50;;;;;;;5.46;75.80;97607.53;4984490;28;20391;-55
2023/10/17 02:43:12;;;;;;;0.50;0.50;;;;;;;5.53;76.88;97627.09;4985290;28;20589;-55
2023/10/17 02:45:41;;;;;;;0.50;0.50;;;;;;;5.55;76.41;97635.81;4988145;28;20084;-57
2023/10/17 02:48:23;;;;;;;0.50;0.50;;;;;;;5.43;77.60;97621.94;4988378;28;20085;-54
2023/10/17 02:51:00;;;;;;;0.50;0.50;;;;;;;5.08;77.95;97581.84;4988322;28;20480;-56
2023/10/17 02:53:34;;;;;;;0.50;0.50;;;;;;;5.30;78.44;97598.16;4988429;28;20819;-55
2023/10/17 02:56:18;;;;;;;0.50;0.50;;;;;;;5.32;79.51;97642.59;4988130;28;20422;-55
2023/10/17 02:58:59;;;;;;;;;;;;;;;5.18;80.13;97618.03;4988769;28;20156;-55
2023/10/17 03:01:27;;;;;;;0.50;0.50;;;;;;;5.11;81.14;97619.63;4988554;28;20009;-55
2023/10/17 03:03:54;;;;;;;0.50;0.50;;;;;;;5.19;81.31;97611.41;4988276;28;20087;-54
2023/10/17 03:06:21;;;;;;;0.50;0.50;;;;;;;5.29;81.08;97613.03;4970773;28;20058;-56
2023/10/17 03:08:51;;;;;;;0.50;0.50;;;;;;;4.96;80.94;97556.97;4987767;28;20053;-55
2023/10/17 03:11:35;;;;;;;0.50;0.50;;;;;;;4.93;81.85;97563.09;4987767;28;20062;-56
2023/10/17 03:14:11;;;;;;;0.50;0.50;;;;;;;5.26;81.81;97613.69;4986333;28;20050;-55
2023/10/17 03:16:43;;;;;;;0.50;0.50;;;;;;;4.98;82.34;97587.66;4988078;28;20072;-56
2023/10/17 03:19:12;;;;;;;0.50;0.50;;;;;;;5.10;82.32;97574.09;4980019;28;20065;-55
2023/10/17 03:21:43;;;;;;;0.50;0.50;;;;;;;5.22;82.24;97609.94;4968631;28;20793;-55
2023/10/17 03:24:13;;;;;;;0.50;0.50;;;;;;;5.02;81.34;97570.22;4968619;28;20057;-55
2023/10/17 03:26:39;;;;;;;0.52;0.52;;;;;;;5.39;80.67;97609.97;4968628;28;20057;-56
2023/10/17 03:29:19;;;;;;;0.50;0.50;;;;;;;5.29;81.14;97605.63;4967612;28;20065;-56
2023/10/17 03:31:48;;;;;;;0.45;0.45;;;;;;;5.06;77.99;97600.59;4968407;28;20058;-55
2023/10/17 03:34:21;;;;;;;0.50;0.50;;;;;;;4.86;76.44;97599.25;4948975;28;20074;-57
2023/10/17 03:36:50;;;;;;;0.40;0.40;;;;;;;4.68;76.87;97606.63;4948849;28;20460;-57
2023/10/17 03:39:21;;;;;;;0.43;0.43;;;;;;;4.54;77.46;97600.47;4948734;28;20059;-56
2023/10/17 03:41:49;;;;;;;0.47;0.47;;;;;;;4.31;78.24;97567.97;4948598;28;20055;-54
2023/10/17 03:44:16;;;;;;;0.50;0.50;;;;;;;4.57;78.48;97605.31;4948782;28;20498;-55
2023/10/17 03:46:46;;;;;;;0.50;0.50;;;;;;;4.54;78.75;97603.22;4948643;28;20059;-56
2023/10/17 03:49:18;;;;;;;0.45;0.45;;;;;;;4.48;78.99;97581.72;4948898;28;20057;-55
2023/10/17 03:51:54;;;;;;;0.50;0.50;;;;;;;4.68;80.04;97602.28;4948367;28;20086;-56
2023/10/17 03:54:24;;;;;;;0.50;0.50;;;;;;;4.73;80.89;97608.41;4948120;28;20091;-56
2023/10/17 03:57:02;;;;;;;0.45;0.45;;;;;;;4.78;81.48;97605.53;4948445;28;20059;-55
2023/10/17 03:59:38;;;;;;;0.50;0.50;;;;;;;4.80;81.80;97605.22;4948485;28;20055;-56
2023/10/17 04:02:06;;;;;;;0.50;0.50;;;;;;;4.87;81.25;97608.31;4947003;29;20110;-55
2023/10/17 04:04:36;;;;;;;0.40;0.40;;;;;;;4.86;80.47;97609.41;4948005;28;20051;-55
2023/10/17 04:07:06;;;;;;;0.50;0.50;;;;;;;4.15;80.57;97499.03;4948498;28;20055;-55
2023/10/17 04:09:46;;;;;;;0.50;0.50;;;;;;;3.65;80.81;97437.44;4948315;29;20813;-56
2023/10/17 04:12:20;;;;;;;0.40;0.40;;;;;;;4.60;80.39;97549.81;4946850;29;20111;-55
2023/10/17 04:14:58;;;;;;;0.50;0.50;;;;;;;5.03;80.96;97592.97;4948188;28;20094;-56
2023/10/17 04:17:30;;;;;;;0.43;0.43;;;;;;;4.63;81.34;97527.22;4946813;29;20086;-55
2023/10/17 04:20:11;;;;;;;0.50;0.50;;;;;;;5.02;82.15;97583.13;4948161;28;20554;-55
2023/10/17 04:22:39;;;;;;;0.50;0.50;;;;;;;5.11;81.41;97586.69;4948201;28;20095;-58
2023/10/17 04:28:16;;;;;;;0.40;0.40;;;;;;;5.07;81.23;97585.72;4925938;29;20451;-55
2023/10/17 04:30:46;;;;;;;0.50;0.50;;;;;;;5.02;80.76;97585.88;4925934;29;20497;-56
2023/10/17 04:33:13;;;;;;;0.50;0.50;;;;;;;4.96;80.84;97587.16;4938415;28;20055;-56
2023/10/17 04:35:46;;;;;;;0.40;0.40;;;;;;;5.01;81.33;97587.00;4947307;28;21152;-56
2023/10/17 04:38:19;;;;;;;0.50;0.50;;;;;;;5.02;81.41;97605.91;4947833;28;20078;-55
2023/10/17 04:41:11;;;;;;;0.50;0.50;;;;;;;4.92;82.52;97608.13;4947677;28;20047;-56
2023/10/17 04:43:56;;;;;;;0.40;0.40;;;;;;;4.80;81.99;97586.00;4947519;28;20526;-57
2023/10/17 04:46:27;;;;;;;0.40;0.40;;;;;;;4.81;81.90;97609.56;4960043;28;20512;-59
2023/10/17 04:49:06;;;;;;;0.50;0.50;;;;;;;4.83;82.57;97610.88;4961775;28;20510;-61
2023/10/17 04:51:38;;;;;;;0.50;0.50;;;;;;;4.57;82.94;97560.59;4961813;28;20085;-61
2023/10/17 04:54:29;;;;;;;0.50;0.50;;;;;;;4.98;83.33;97610.41;4966651;28;20046;-62
2023/10/17 04:56:59;;;;;;;0.50;0.50;;;;;;;4.85;82.79;97588.59;4966195;28;20055;-60
2023/10/17 06:19:20;;;;;;;0.70;0.70;;;;;;;9.24;66.45;97634.50;4964679;28;20058;-61
2023/10/17 06:35:20;;;;;;;0.80;0.80;;;;;;;10.34;63.92;97620.78;4963294;28;20117;-61
2023/10/17 06:37:51;;;;;;;0.80;0.80;;;;;;;9.92;63.67;97531.03;4964481;28;20086;-65
2023/10/17 06:40:18;;;;;;;0.90;0.90;;;;;;;10.65;62.93;97597.88;4964619;28;20055;-56
2023/10/17 06:42:59;;;;;;;0.70;0.70;;;;;;;10.96;61.78;97614.47;4963688;28;20047;-62
2023/10/17 06:45:27;;;;;;;0.88;0.88;;;;;;;11.00;61.35;97597.94;4958322;28;20061;-56
2023/10/17 06:47:57;;;;;;;0.90;0.90;;;;;;;10.85;61.02;97554.41;4993727;28;20061;-63
2023/10/17 06:53:15;;;;;;;0.90;0.90;;;;;;;11.53;61.05;97609.09;5002834;28;20048;-61
2023/10/17 06:55:47;;;;;;;1.00;1.00;;;;;;;11.96;59.72;97606.09;4984818;28;20558;-70
2023/10/17 06:58:14;;;;;;;1.00;1.00;;;;;;;12.06;59.68;97610.25;5001316;28;20485;-58
2023/10/17 07:00:52;;;;;;;1.00;1.00;;;;;;;12.49;59.64;97606.34;5002660;28;20476;-64
2023/10/17 07:03:25;;;;;;;1.10;1.10;;;;;;;12.89;58.42;97601.88;5001789;28;20508;-66
2023/10/17 07:05:55;;;;;;;1.30;1.30;;;;;;;12.47;57.79;97556.66;4992468;28;20058;-57
2023/10/17 07:08:22;;;;;;;1.10;1.10;;;;;;;13.10;56.23;97609.81;4995348;28;20053;-64
2023/10/17 07:10:59;;;;;;;1.20;1.20;;;;;;;13.16;56.28;97614.69;4983211;28;20060;-63
2023/10/17 07:16:34;;;;;;;1.20;1.20;;;;;;;13.41;54.94;97609.50;5002672;28;20074;-56
2023/10/17 07:22:21;;;;;;;1.10;1.10;;;;;;;13.76;54.86;97526.47;4994398;28;20058;-61
2023/10/17 07:24:43;;;;;;;1.17;1.17;;;;;;;14.25;54.27;97582.81;4994595;28;20056;-64
2023/10/17 07:27:19;;;;;;;1.40;1.40;;;;;;;13.73;53.22;97521.66;4986489;28;20143;-55
2023/10/17 07:29:58;;;;;;;1.20;1.20;;;;;;;14.85;53.42;97602.94;4982445;28;20064;-56
2023/10/17 07:32:33;;;;;;;1.30;1.30;;;;;;;14.91;52.42;97593.00;5007043;28;20085;-64
2023/10/17 07:35:04;;;;;;;1.30;1.30;;;;;;;14.80;51.47;97553.88;5005940;28;20522;-64
2023/10/17 07:37:39;;;;;;;1.35;1.35;;;;;;;15.11;51.63;97591.63;5006610;28;20120;-55
2023/10/17 07:42:42;;;;;;;1.50;1.50;;;;;;;14.53;51.37;97565.56;5004197;28;20046;-56
2023/10/17 07:45:15;;;;;;;1.48;1.48;;;;;;;15.40;50.40;97585.06;5001917;28;20630;-60
2023/10/17 07:47:43;;;;;;;1.40;1.40;;;;;;;14.34;51.27;97585.28;5003499;28;20509;-64
2023/10/17 07:50:14;;;;;;;1.20;1.20;;;;;;;14.30;50.56;97481.34;4993357;28;20045;-66
2023/10/17 07:52:43;;;;;;;1.38;1.38;;;;;;;14.54;51.45;97567.97;5004832;28;20129;-64
2023/10/17 07:55:23;;;;;;;1.33;1.33;;;;;;;14.98;50.62;97565.97;5005100;28;20061;-59
2023/10/17 07:57:53;;;;;;;1.23;1.23;;;;;;;15.40;49.96;97587.84;4985784;28;20500;-63
2023/10/17 08:00:26;;;;;;;1.20;1.20;;;;;;;15.30;49.87;97526.34;4986032;28;20050;-66
2023/10/17 08:03:14;;;;;;;1.20;1.20;;;;;;;13.09;49.97;97266.09;4987137;28;20062;-65
2023/10/17 08:05:45;;;;;;;1.30;1.30;;;;;;;14.81;50.98;97549.13;5001749;28;20082;-68
2023/10/17 08:08:20;;;;;;;1.35;1.35;;;;;;;14.62;50.42;97485.22;5005514;28;20050;-62
2023/10/17 08:10:47;;;;;;;1.50;1.50;;;;;;;15.25;50.24;97549.84;5004239;28;20140;-68
2023/10/17 08:13:13;;;;;;;1.40;1.40;;;;;;;14.73;49.66;97433.09;4983242;28;20046;-65
2023/10/17 08:18:16;;;;;;;1.40;1.40;;;;;;;15.54;48.44;97546.06;5005794;28;20128;-72
2023/10/17 08:23:23;;;;;;;1.42;1.42;;;;;;;15.67;47.73;97541.75;5000813;28;20045;-67
2023/10/17 08:25:53;;;;;;;1.40;1.40;;;;;;;15.80;47.61;97545.81;4993837;28;20046;-65
2023/10/17 08:34:01;;;;;;;1.30;1.30;;;;;;;15.60;47.75;97541.69;4998377;28;20119;-66
2023/10/17 08:36:48;;;;;;;1.40;1.40;;;;;;;15.42;47.24;97524.06;4999956;28;20053;-55
2023/10/17 08:41:57;;;;;;;1.35;1.35;;;;;;;15.70;47.21;97538.19;5003961;28;20073;-65
2023/10/17 08:44:29;;;;;;;1.70;1.70;;;;;;;15.67;46.10;97525.00;5006102;28;20049;-67
2023/10/17 08:46:56;;;;;;;1.45;1.45;;;;;;;16.04;45.10;97533.94;5002813;28;20613;-56
2023/10/17 08:49:27;;;;;;;1.60;1.60;;;;;;;16.18;45.05;97527.59;4992619;28;20133;-55
2023/10/17 08:51:57;;;;;;;1.40;1.40;;;;;;;16.25;44.67;97506.03;4992535;28;20058;-56
2023/10/17 08:54:28;;;;;;;1.40;1.40;;;;;;;16.32;45.01;97534.03;5003734;28;20045;-54
2023/10/17 08:57:07;;;;;;;1.60;1.60;;;;;;;16.74;44.09;97516.50;5004583;28;20054;-68
2023/10/17 09:05:00;;;;;;;1.83;1.83;;;;;;;16.96;43.73;97503.34;4983543;28;20644;-69
2023/10/17 09:07:46;;;;;;;1.67;1.67;;;;;;;17.19;42.90;97493.31;4997493;28;20050;-57
2023/10/17 09:10:17;;;;;;;1.73;1.73;;;;;;;17.42;42.24;97488.03;5001972;28;20682;-55
2023/10/17 09:13:14;;;;;;;1.70;1.70;;;;;;;17.54;42.07;97478.44;4984720;28;20524;-65
2023/10/17 09:15:47;;;;;;;1.92;1.92;;;;;;;17.22;42.63;97475.69;5002996;28;20132;-54
2023/10/17 09:18:21;;;;;;;1.75;1.75;;;;;;;16.80;43.19;97474.97;4830680;28;5001227;-56
2023/10/17 09:20:50;;;;;;;1.75;1.75;;;;;;;17.34;42.08;97457.69;5003776;28;20058;-57
2023/10/17 09:23:28;;;;;;;1.67;1.67;;;;;;;16.26;43.88;97393.03;5004870;28;20100;-54
2023/10/17 09:26:00;;;;;;;1.80;1.80;;;;;;;16.57;43.21;97406.22;5004294;28;20057;-62
2023/10/17 09:28:32;;;;;;;1.60;1.60;;;;;;;16.77;43.65;97458.97;5002222;28;20054;-61
2023/10/17 09:31:02;;;;;;;1.75;1.75;;;;;;;17.06;43.20;97460.53;4980622;28;20050;-70
2023/10/17 09:33:31;;;;;;;1.85;1.85;;;;;;;16.89;43.11;97462.16;4992051;28;20137;-59
2023/10/17 09:36:00;;;;;;;1.70;1.70;;;;;;;16.80;43.44;97442.19;4972782;28;20046;-57
2023/10/17 09:38:27;;;;;;;1.85;1.85;;;;;;;17.06;42.72;97460.53;5003706;28;20053;-67
2023/10/17 09:40:59;;;;;;;1.60;1.60;;;;;;;17.20;42.90;97454.91;5003444;28;20052;-62
2023/10/17 09:43:45;;;;;;;1.60;1.60;;;;;;;16.83;43.58;97451.75;5003177;28;20568;-58
2023/10/17 09:46:14;;;;;;;1.48;1.48;;;;;;;15.44;44.71;97317.88;4973276;28;20054;-62
2023/10/17 09:48:43;;;;;;;1.50;1.50;;;;;;;16.97;43.49;97441.38;4983106;28;20480;-56
2023/10/17 09:51:27;;;;;;;1.70;1.70;;;;;;;17.24;42.34;97420.09;4994668;28;20085;-62
2023/10/17 09:53:58;;;;;;;1.70;1.70;;;;;;;17.24;41.67;97377.28;5002397;28;20136;-56
2023/10/17 09:56:31;;;;;;;1.85;1.85;;;;;;;17.85;41.73;97413.06;5002738;28;20898;-55
2023/10/17 09:59:17;;;;;;;1.98;1.98;;;;;;;18.25;41.01;97420.81;5003509;28;20059;-64
2023/10/17 10:01:49;;;;;;;2.05;2.05;;;;;;;18.27;40.81;97410.00;5002892;28;20046;-56
2023/10/17 10:04:19;;;;;;;1.70;1.70;;;;;;;17.38;40.69;97386.44;5004426;28;20053;-57
2023/10/17 10:06:47;;;;;;;1.77;1.77;;;;;;;17.56;41.00;97422.81;5003973;28;20160;-56
2023/10/17 10:09:14;;;;;;;1.70;1.70;;;;;;;17.99;40.23;97418.56;5004121;28;20072;-65
2023/10/17 10:11:51;;;;;;;1.73;1.73;;;;;;;17.05;41.22;97419.75;5003882;28;20072;-71
2023/10/17 10:14:23;;;;;;;1.75;1.75;;;;;;;17.41;40.98;97415.63;5004124;28;20050;-64
2023/10/17 10:16:57;;;;;;;1.80;1.80;;;;;;;17.41;40.12;97356.81;4979247;28;20452;-65
2023/10/17 10:19:44;;;;;;;1.70;1.70;;;;;;;17.52;40.61;97378.00;4966128;28;20057;-67
2023/10/17 10:22:12;;;;;;;1.90;1.90;;;;;;;15.46;40.25;97156.34;4982605;28;20050;-56
2023/10/17 10:24:41;;;;;;;1.60;1.60;;;;;;;17.77;39.06;97377.88;4982188;28;20058;-57
2023/10/17 10:27:08;;;;;;;1.90;1.90;;;;;;;17.40;39.65;97375.63;4982848;28;20141;-56
2023/10/17 10:29:35;;;;;;;1.70;1.70;;;;;;;17.81;39.04;97362.63;4984612;28;20054;-56
2023/10/17 10:32:06;;;;;;;1.83;1.83;;;;;;;18.20;37.75;97373.56;4984099;28;20054;-56
2023/10/17 10:34:36;;;;;;;2.13;2.13;;;;;;;15.30;37.83;96906.72;4995073;28;20071;-58
2023/10/17 10:37:04;;;;;;;2.03;2.03;;;;;;;18.24;37.27;97340.69;5002964;28;20050;-56
2023/10/17 10:39:30;;;;;;;2.00;2.00;;;;;;;17.50;38.33;97331.97;5003560;28;20053;-56
2023/10/17 10:41:59;;;;;;;1.90;1.90;;;;;;;17.50;38.24;97344.00;4985608;28;20046;-68
2023/10/17 10:44:29;;;;;;;1.90;1.90;;;;;;;18.27;37.50;97348.28;5003486;28;20053;-64
2023/10/17 10:46:56;;;;;;;1.80;1.80;;;;;;;17.51;37.46;97238.34;5003425;28;20083;-69
2023/10/17 10:49:27;;;;;;;1.80;1.80;;;;;;;17.21;38.13;97266.13;5003512;28;20058;-66
2023/10/17 10:51:58;;;;;;;1.90;1.90;;;;;;;17.23;38.20;97258.13;5003479;28;20049;-68
2023/10/17 10:54:45;;;;;;;1.80;1.80;;;;;;;17.94;37.43;97338.50;5001776;28;20050;-65
2023/10/17 10:57:12;;;;;;;2.13;2.13;;;;;;;17.41;38.08;97331.59;5003412;28;20078;-60
2023/10/17 10:59:49;;;;;;;1.60;1.60;;;;;;;16.51;39.52;97340.72;5002855;28;20085;-73
2023/10/17 11:02:16;;;;;;;1.70;1.70;;;;;;;17.35;38.49;97322.84;5003443;28;20626;-70
2023/10/17 11:04:42;;;;;;;1.98;1.98;;;;;;;17.22;37.70;97304.09;4988573;28;20613;-70
2023/10/17 11:07:23;;;;;;;1.85;1.85;;;;;;;17.53;37.94;97291.97;4989548;28;20084;-60
2023/10/17 11:10:07;;;;;;;1.90;1.90;;;;;;;17.47;38.11;97304.78;5005315;28;20066;-60
2023/10/17 11:12:34;;;;;;;1.73;1.73;;;;;;;16.21;38.89;97248.06;5005854;28;20382;-61
2023/10/17 11:15:09;;;;;;;1.50;1.50;;;;;;;16.72;39.53;97319.50;5007021;28;20497;-59
2023/10/17 11:17:38;;;;;;;1.80;1.80;;;;;;;17.16;39.11;97291.72;5007034;28;20662;-61
2023/10/17 11:20:19;;;;;;;1.73;1.73;;;;;;;17.83;38.00;97326.56;5006973;28;20143;-67
2023/10/17 11:22:49;;;;;;;1.63;1.63;;;;;;;12.74;37.30;96579.94;4766107;28;5002215;-60
2023/10/17 11:25:26;;;;;;;2.00;2.00;;;;;;;17.89;37.17;97279.31;4991062;28;20148;-61
2023/10/17 11:28:00;;;;;;;1.95;1.95;;;;;;;18.31;37.16;97301.38;4989423;28;20524;-59
2023/10/17 11:30:40;;;;;;;1.90;1.90;;;;;;;17.67;37.53;97300.28;5004378;28;20128;-62
2023/10/17 11:33:16;;;;;;;1.88;1.88;;;;;;;17.87;37.20;97299.34;4995501;28;20310;-59
2023/10/17 11:35:47;;;;;;;1.83;1.83;;;;;;;17.79;36.44;97212.91;5002728;28;20046;-65
2023/10/17 11:38:40;;;;;;;1.83;1.83;;;;;;;17.67;37.19;97289.84;5006779;28;20065;-57
2023/10/17 11:41:15;;;;;;;1.83;1.83;;;;;;;17.82;37.36;97290.56;5001627;28;20058;-61
2023/10/17 11:43:53;;;;;;;1.70;1.70;;;;;;;17.62;37.47;97283.91;4969685;28;20137;-68
2023/10/17 11:46:28;;;;;;;1.83;1.83;;;;;;;17.54;37.73;97276.75;4987648;28;20050;-70
2023/10/17 11:49:21;;;;;;;1.80;1.80;;;;;;;15.71;37.42;96961.59;4986948;28;20076;-59
2023/10/17 11:51:51;;;;;;;1.50;1.50;;;;;;;17.28;37.59;97263.25;4982901;28;20054;-67
2023/10/17 11:54:22;;;;;;;1.73;1.73;;;;;;;15.82;37.78;97093.66;4996432;28;20532;-67
2023/10/17 11:57:13;;;;;;;1.48;1.48;;;;;;;17.05;38.33;97272.19;4988861;28;20108;-57
2023/10/17 12:00:06;;;;;;;1.80;1.80;;;;;;;17.81;37.70;97272.16;4988371;28;20062;-65
2023/10/17 12:02:41;;;;;;;1.77;1.77;;;;;;;17.87;37.08;97208.84;5006040;28;20052;-64
2023/10/17 12:05:18;;;;;;;1.92;1.92;;;;;;;17.93;36.00;97167.94;5005630;28;20127;-64
2023/10/17 12:11:29;;;;;;;2.30;2.30;;;;;;;18.64;37.07;97272.59;5073157;28;20444;-61
2023/10/17 12:13:57;;;;;;;2.08;2.08;;;;;;;18.66;36.89;97273.00;5079730;28;20048;-59
2023/10/17 12:16:24;;;;;;;2.00;2.00;;;;;;;18.29;37.12;97219.66;5065929;28;20045;-63
2023/10/17 12:18:52;;;;;;;2.00;2.00;;;;;;;18.75;36.74;97248.03;5058888;28;20067;-68
2023/10/17 12:21:19;;;;;;;1.95;1.95;;;;;;;18.74;36.65;97243.63;5046302;28;20085;-60
2023/10/17 12:23:46;;;;;;;2.08;2.08;;;;;;;17.79;36.41;97129.66;5056037;28;20110;-65
2023/10/17 12:26:19;;;;;;;1.90;1.90;;;;;;;17.95;37.29;97193.56;5060395;28;20505;-68
2023/10/17 12:28:46;;;;;;;2.10;2.10;;;;;;;18.54;37.26;97253.88;5059021;28;20057;-67
2023/10/17 12:31:19;;;;;;;2.08;2.08;;;;;;;18.46;37.57;97251.56;5060229;28;20063;-66
2023/10/17 12:33:46;;;;;;;2.10;2.10;;;;;;;18.55;37.48;97249.88;5058466;28;20057;-65
2023/10/17 12:36:13;;;;;;;2.10;2.10;;;;;;;18.73;37.19;97211.16;5063469;28;20076;-57
2023/10/17 12:38:40;;;;;;;2.17;2.17;;;;;;;19.00;36.72;97240.09;5076655;28;20052;-65
2023/10/17 12:41:07;;;;;;;2.40;2.35;;;;;;;19.01;37.38;97244.50;5066338;28;20219;-56
2023/10/17 12:43:35;;;;;;;2.08;2.08;;;;;;;19.17;36.98;97244.66;5079055;28;20055;-68
2023/10/17 12:46:02;;;;;;;1.90;1.90;;;;;;;18.99;37.33;97240.50;5065460;28;20140;-67
2023/10/17 12:48:29;;;;;;;2.10;2.10;;;;;;;19.01;38.14;97247.31;5079638;28;20056;-61
2023/10/17 12:50:56;;;;;;;2.05;2.05;;;;;;;18.43;38.41;97174.63;5059182;28;20507;-61
2023/10/17 12:53:23;;;;;;;2.00;2.00;;;;;;;18.66;38.35;97228.09;5056329;28;20110;-66
2023/10/17 12:55:50;;;;;;;2.03;2.03;;;;;;;18.48;39.04;97241.50;5053783;28;20131;-62
2023/10/17 12:58:22;;;;;;;1.90;1.90;;;;;;;18.27;39.26;97238.09;5056972;28;20056;-58
2023/10/17 13:00:49;;;;;;;1.77;1.77;;;;;;;18.04;39.47;97210.69;5055382;28;20083;-62
2023/10/17 13:03:17;;;;;;;2.00;2.00;;;;;;;18.19;39.61;97237.38;5056927;28;20546;-58
2023/10/17 13:05:44;;;;;;;1.83;1.83;;;;;;;18.25;39.51;97238.53;5058276;28;20084;-59
2023/10/17 13:08:13;;;;;;;1.92;1.92;;;;;;;18.12;39.94;97231.84;5058903;28;20064;-62
2023/10/17 13:10:40;;;;;;;1.80;1.80;;;;;;;17.71;40.17;97197.38;5057373;28;20056;-62
2023/10/17 13:13:06;;;;;;;1.90;1.90;;;;;;;17.33;40.75;97128.44;5058891;28;20052;-58
2023/10/17 13:15:33;;;;;;;1.88;1.88;;;;;;;17.50;40.57;97166.72;5056960;28;20049;-55
2023/10/17 13:18:03;;;;;;;1.80;1.80;;;;;;;17.55;40.44;97157.88;5058043;28;20137;-56
2023/10/17 13:20:32;;;;;;;1.90;1.90;;;;;;;17.83;40.74;97248.09;5059053;28;20468;-60
2023/10/17 13:23:18;;;;;;;1.85;1.85;;;;;;;17.98;40.56;97248.78;5044637;28;20494;-62
2023/10/17 13:25:44;;;;;;;1.95;1.95;;;;;;;17.92;40.74;97222.41;5045038;28;20053;-58
2023/10/17 13:28:11;;;;;;;1.80;1.80;;;;;;;18.21;40.47;97246.16;5042164;28;20064;-58
2023/10/17 13:30:38;;;;;;;1.88;1.88;;;;;;;18.32;40.25;97246.84;5044972;28;20080;-61
2023/10/17 13:33:06;;;;;;;2.00;2.00;;;;;;;18.30;40.36;97246.50;5042750;28;20057;-60
2023/10/17 13:35:37;;;;;;;1.92;1.92;;;;;;;18.03;40.14;97203.50;5042006;28;20051;-61
2023/10/17 13:38:04;;;;;;;1.80;1.80;;;;;;;17.93;40.68;97202.38;5041396;28;20057;-56
2023/10/17 13:40:32;;;;;;;1.75;1.75;;;;;;;17.73;40.79;97231.38;5043722;28;20057;-66
2023/10/17 13:43:04;;;;;;;1.90;1.90;;;;;;;17.38;41.09;97181.19;5044280;28;20049;-61
2023/10/17 13:45:39;;;;;;;2.00;2.00;;;;;;;17.73;40.75;97223.78;5042575;28;20292;-60
2023/10/17 13:48:07;;;;;;;1.90;1.90;;;;;;;17.42;40.80;97274.41;5044017;28;20056;-66
2023/10/17 13:50:34;;;;;;;1.60;1.60;;;;;;;17.21;41.22;97182.13;5043734;28;20057;-61
2023/10/17 13:53:06;;;;;;;1.80;1.80;;;;;;;17.38;40.88;97209.19;5043809;28;20045;-64
2023/10/17 13:55:35;;;;;;;1.90;1.90;;;;;;;17.15;40.94;97183.78;5044045;28;20045;-54
2023/10/17 13:58:02;;;;;;;1.48;1.48;;;;;;;17.46;40.94;97230.38;5042944;28;20661;-57
2023/10/17 14:00:51;;;;;;;1.75;1.75;;;;;;;17.12;41.25;97207.75;5045056;28;20044;-60
2023/10/17 14:03:21;;;;;;;1.77;1.77;;;;;;;17.24;41.21;97231.69;5045950;28;20075;-60
2023/10/17 14:05:49;;;;;;;1.70;1.70;;;;;;;17.10;41.26;97231.78;5046332;28;20060;-60
2023/10/17 14:08:25;;;;;;;1.65;1.65;;;;;;;17.10;41.10;97227.00;5046078;28;20068;-60
2023/10/17 14:10:51;;;;;;;1.60;1.60;;;;;;;16.94;41.43;97234.25;5045182;28;20061;-59
2023/10/17 14:13:18;;;;;;;1.48;1.48;;;;;;;16.96;41.41;97237.47;5045390;28;20084;-59